sensor_id;sensor_type;location;lat;lon;timestamp;P1;durP1;ratioP1;P2;durP2;ratioP2
18302;SDS011;9277;37.980;23.748;2022-11-18T00:01:44;8.77;;;3.67;;
18302;SDS011;9277;37.980;23.748;2022-11-18T00:04:11;10.77;;;4.07;;
18302;SDS011;9277;37.980;23.748;2022-11-18T00:06:38;12.98;;;4.20;;
18302;SDS011;9277;37.980;23.748;2022-11-18T00:09:06;11.45;;;4.20;;
18302;SDS011;9277;37.980;23.748;2022-11-18T00:11:33;11.55;;;4.10;;
18302;SDS011;9277;37.980;23.748;2022-11-18T00:14:18;10.70;;;4.22;;
18302;SDS011;9277;37.980;23.748;2022-11-18T00:16:47;8.88;;;3.55;;
18302;SDS011;9277;37.980;23.748;2022-11-18T00:19:14;8.75;;;4.05;;
18302;SDS011;9277;37.980;23.748;2022-11-18T00:21:41;8.95;;;3.90;;
18302;SDS011;9277;37.980;23.748;2022-11-18T00:24:09;12.88;;;4.18;;
18302;SDS011;9277;37.980;23.748;2022-11-18T00:26:36;10.98;;;4.28;;
18302;SDS011;9277;37.980;23.748;2022-11-18T00:29:03;9.15;;;4.28;;
18302;SDS011;9277;37.980;23.748;2022-11-18T00:31:29;12.18;;;4.00;;
18302;SDS011;9277;37.980;23.748;2022-11-18T00:33:57;7.35;;;3.95;;
18302;SDS011;9277;37.980;23.748;2022-11-18T00:36:23;7.57;;;4.30;;
18302;SDS011;9277;37.980;23.748;2022-11-18T00:38:50;10.05;;;4.53;;
18302;SDS011;9277;37.980;23.748;2022-11-18T00:41:19;14.63;;;4.70;;
18302;SDS011;9277;37.980;23.748;2022-11-18T00:43:45;7.88;;;3.90;;
18302;SDS011;9277;37.980;23.748;2022-11-18T00:46:11;11.35;;;4.18;;
18302;SDS011;9277;37.980;23.748;2022-11-18T00:48:38;10.10;;;4.22;;
18302;SDS011;9277;37.980;23.748;2022-11-18T00:51:06;8.60;;;3.33;;
18302;SDS011;9277;37.980;23.748;2022-11-18T00:53:33;13.40;;;3.75;;
18302;SDS011;9277;37.980;23.748;2022-11-18T00:56:00;6.28;;;3.55;;
18302;SDS011;9277;37.980;23.748;2022-11-18T00:58:28;9.73;;;3.15;;
18302;SDS011;9277;37.980;23.748;2022-11-18T01:00:55;11.35;;;3.70;;
18302;SDS011;9277;37.980;23.748;2022-11-18T01:03:22;9.35;;;3.83;;
18302;SDS011;9277;37.980;23.748;2022-11-18T01:05:49;8.98;;;3.28;;
18302;SDS011;9277;37.980;23.748;2022-11-18T01:08:16;3.80;;;3.10;;
18302;SDS011;9277;37.980;23.748;2022-11-18T01:10:43;11.10;;;3.38;;
18302;SDS011;9277;37.980;23.748;2022-11-18T01:13:11;4.93;;;3.05;;
18302;SDS011;9277;37.980;23.748;2022-11-18T01:15:50;10.27;;;3.10;;
18302;SDS011;9277;37.980;23.748;2022-11-18T01:18:17;4.65;;;3.28;;
18302;SDS011;9277;37.980;23.748;2022-11-18T01:20:44;10.00;;;3.72;;
18302;SDS011;9277;37.980;23.748;2022-11-18T01:23:12;6.60;;;3.38;;
18302;SDS011;9277;37.980;23.748;2022-11-18T01:25:39;4.20;;;2.92;;
18302;SDS011;9277;37.980;23.748;2022-11-18T01:28:06;7.32;;;3.20;;
18302;SDS011;9277;37.980;23.748;2022-11-18T01:30:33;8.95;;;3.80;;
18302;SDS011;9277;37.980;23.748;2022-11-18T01:33:02;8.85;;;3.22;;
18302;SDS011;9277;37.980;23.748;2022-11-18T01:35:32;5.57;;;3.30;;
18302;SDS011;9277;37.980;23.748;2022-11-18T01:37:59;9.07;;;3.10;;
18302;SDS011;9277;37.980;23.748;2022-11-18T01:40:26;9.93;;;3.33;;
18302;SDS011;9277;37.980;23.748;2022-11-18T01:42:54;6.18;;;2.95;;
18302;SDS011;9277;37.980;23.748;2022-11-18T01:45:24;7.05;;;3.22;;
18302;SDS011;9277;37.980;23.748;2022-11-18T01:47:54;4.93;;;3.25;;
18302;SDS011;9277;37.980;23.748;2022-11-18T01:50:25;8.75;;;3.90;;
18302;SDS011;9277;37.980;23.748;2022-11-18T01:52:52;6.32;;;3.50;;
18302;SDS011;9277;37.980;23.748;2022-11-18T01:55:24;5.97;;;3.20;;
18302;SDS011;9277;37.980;23.748;2022-11-18T01:57:52;7.63;;;2.67;;
18302;SDS011;9277;37.980;23.748;2022-11-18T02:00:22;10.88;;;3.00;;
18302;SDS011;9277;37.980;23.748;2022-11-18T02:02:49;5.28;;;3.13;;
18302;SDS011;9277;37.980;23.748;2022-11-18T02:05:16;7.75;;;2.88;;
18302;SDS011;9277;37.980;23.748;2022-11-18T02:07:44;14.00;;;3.08;;
18302;SDS011;9277;37.980;23.748;2022-11-18T02:10:16;5.70;;;2.83;;
18302;SDS011;9277;37.980;23.748;2022-11-18T02:12:43;12.82;;;2.75;;
18302;SDS011;9277;37.980;23.748;2022-11-18T02:15:10;7.13;;;2.85;;
18302;SDS011;9277;37.980;23.748;2022-11-18T02:17:39;7.78;;;3.55;;
18302;SDS011;9277;37.980;23.748;2022-11-18T02:26:00;4.80;;;2.63;;
18302;SDS011;9277;37.980;23.748;2022-11-18T02:28:35;9.35;;;2.83;;
18302;SDS011;9277;37.980;23.748;2022-11-18T02:31:06;5.60;;;3.03;;
18302;SDS011;9277;37.980;23.748;2022-11-18T02:33:35;3.97;;;2.15;;
18302;SDS011;9277;37.980;23.748;2022-11-18T02:36:04;6.43;;;2.78;;
18302;SDS011;9277;37.980;23.748;2022-11-18T02:38:33;5.22;;;2.35;;
18302;SDS011;9277;37.980;23.748;2022-11-18T02:41:03;5.63;;;2.28;;
18302;SDS011;9277;37.980;23.748;2022-11-18T02:43:32;2.63;;;2.30;;
18302;SDS011;9277;37.980;23.748;2022-11-18T02:46:00;5.13;;;2.47;;
18302;SDS011;9277;37.980;23.748;2022-11-18T02:48:31;4.68;;;2.40;;
18302;SDS011;9277;37.980;23.748;2022-11-18T02:50:59;8.73;;;2.67;;
18302;SDS011;9277;37.980;23.748;2022-11-18T02:53:27;5.70;;;2.92;;
18302;SDS011;9277;37.980;23.748;2022-11-18T02:55:56;5.00;;;2.97;;
18302;SDS011;9277;37.980;23.748;2022-11-18T02:58:24;2.70;;;2.38;;
18302;SDS011;9277;37.980;23.748;2022-11-18T03:00:52;3.90;;;2.30;;
18302;SDS011;9277;37.980;23.748;2022-11-18T03:03:22;8.50;;;2.58;;
18302;SDS011;9277;37.980;23.748;2022-11-18T03:05:52;7.95;;;2.88;;
18302;SDS011;9277;37.980;23.748;2022-11-18T03:08:21;8.73;;;3.15;;
18302;SDS011;9277;37.980;23.748;2022-11-18T03:10:51;6.00;;;2.83;;
18302;SDS011;9277;37.980;23.748;2022-11-18T03:13:22;4.07;;;2.67;;
18302;SDS011;9277;37.980;23.748;2022-11-18T03:15:50;8.38;;;2.80;;
18302;SDS011;9277;37.980;23.748;2022-11-18T03:18:22;5.45;;;2.70;;
18302;SDS011;9277;37.980;23.748;2022-11-18T03:20:55;6.78;;;2.90;;
18302;SDS011;9277;37.980;23.748;2022-11-18T03:23:26;8.30;;;3.03;;
18302;SDS011;9277;37.980;23.748;2022-11-18T03:25:54;8.30;;;3.00;;
18302;SDS011;9277;37.980;23.748;2022-11-18T03:28:22;5.75;;;2.42;;
18302;SDS011;9277;37.980;23.748;2022-11-18T03:30:52;8.52;;;3.00;;
18302;SDS011;9277;37.980;23.748;2022-11-18T03:33:21;8.63;;;2.38;;
18302;SDS011;9277;37.980;23.748;2022-11-18T03:35:50;8.43;;;3.53;;
18302;SDS011;9277;37.980;23.748;2022-11-18T03:38:22;6.82;;;2.63;;
18302;SDS011;9277;37.980;23.748;2022-11-18T03:40:50;4.63;;;2.60;;
18302;SDS011;9277;37.980;23.748;2022-11-18T03:43:20;5.00;;;2.47;;
18302;SDS011;9277;37.980;23.748;2022-11-18T03:45:49;8.98;;;2.83;;
18302;SDS011;9277;37.980;23.748;2022-11-18T03:48:17;5.88;;;3.33;;
18302;SDS011;9277;37.980;23.748;2022-11-18T03:50:45;6.93;;;2.63;;
18302;SDS011;9277;37.980;23.748;2022-11-18T03:53:13;4.50;;;2.50;;
18302;SDS011;9277;37.980;23.748;2022-11-18T03:55:45;3.97;;;2.58;;
18302;SDS011;9277;37.980;23.748;2022-11-18T03:58:14;4.68;;;2.67;;
18302;SDS011;9277;37.980;23.748;2022-11-18T04:00:44;8.23;;;2.33;;
18302;SDS011;9277;37.980;23.748;2022-11-18T04:03:12;5.68;;;2.60;;
18302;SDS011;9277;37.980;23.748;2022-11-18T04:05:39;7.75;;;2.63;;
18302;SDS011;9277;37.980;23.748;2022-11-18T04:08:08;6.05;;;2.38;;
18302;SDS011;9277;37.980;23.748;2022-11-18T04:10:37;7.25;;;2.55;;
18302;SDS011;9277;37.980;23.748;2022-11-18T04:13:06;6.78;;;2.88;;
18302;SDS011;9277;37.980;23.748;2022-11-18T04:15:35;5.88;;;3.10;;
18302;SDS011;9277;37.980;23.748;2022-11-18T04:18:02;6.75;;;3.15;;
18302;SDS011;9277;37.980;23.748;2022-11-18T04:20:29;7.03;;;3.30;;
18302;SDS011;9277;37.980;23.748;2022-11-18T04:22:57;5.68;;;3.45;;
18302;SDS011;9277;37.980;23.748;2022-11-18T04:25:24;7.55;;;3.70;;
18302;SDS011;9277;37.980;23.748;2022-11-18T04:27:51;12.60;;;3.60;;
18302;SDS011;9277;37.980;23.748;2022-11-18T04:30:19;4.75;;;2.88;;
18302;SDS011;9277;37.980;23.748;2022-11-18T04:32:46;5.53;;;3.70;;
18302;SDS011;9277;37.980;23.748;2022-11-18T04:35:13;7.03;;;3.13;;
18302;SDS011;9277;37.980;23.748;2022-11-18T04:37:40;10.43;;;3.60;;
18302;SDS011;9277;37.980;23.748;2022-11-18T04:40:08;6.82;;;3.17;;
18302;SDS011;9277;37.980;23.748;2022-11-18T04:42:35;8.52;;;3.20;;
18302;SDS011;9277;37.980;23.748;2022-11-18T04:45:02;6.43;;;2.88;;
18302;SDS011;9277;37.980;23.748;2022-11-18T04:47:30;7.68;;;3.53;;
18302;SDS011;9277;37.980;23.748;2022-11-18T04:49:57;9.90;;;3.90;;
18302;SDS011;9277;37.980;23.748;2022-11-18T04:52:24;8.48;;;3.85;;
18302;SDS011;9277;37.980;23.748;2022-11-18T04:54:51;5.28;;;3.20;;
18302;SDS011;9277;37.980;23.748;2022-11-18T04:57:18;8.63;;;3.85;;
18302;SDS011;9277;37.980;23.748;2022-11-18T04:59:45;6.57;;;3.00;;
18302;SDS011;9277;37.980;23.748;2022-11-18T05:02:12;9.10;;;3.75;;
18302;SDS011;9277;37.980;23.748;2022-11-18T05:04:40;6.45;;;3.42;;
18302;SDS011;9277;37.980;23.748;2022-11-18T05:07:07;5.45;;;3.15;;
18302;SDS011;9277;37.980;23.748;2022-11-18T05:09:34;6.45;;;3.38;;
18302;SDS011;9277;37.980;23.748;2022-11-18T05:12:01;10.05;;;3.08;;
18302;SDS011;9277;37.980;23.748;2022-11-18T05:14:44;8.70;;;3.25;;
18302;SDS011;9277;37.980;23.748;2022-11-18T05:17:12;5.93;;;3.05;;
18302;SDS011;9277;37.980;23.748;2022-11-18T05:19:39;5.63;;;3.13;;
18302;SDS011;9277;37.980;23.748;2022-11-18T05:22:07;7.40;;;2.90;;
18302;SDS011;9277;37.980;23.748;2022-11-18T05:24:34;6.05;;;3.25;;
18302;SDS011;9277;37.980;23.748;2022-11-18T05:27:01;4.63;;;2.80;;
18302;SDS011;9277;37.980;23.748;2022-11-18T05:29:27;6.45;;;3.35;;
18302;SDS011;9277;37.980;23.748;2022-11-18T05:31:54;10.90;;;3.50;;
18302;SDS011;9277;37.980;23.748;2022-11-18T05:34:21;11.77;;;4.22;;
18302;SDS011;9277;37.980;23.748;2022-11-18T05:36:48;6.40;;;3.08;;
18302;SDS011;9277;37.980;23.748;2022-11-18T05:39:16;6.18;;;3.40;;
18302;SDS011;9277;37.980;23.748;2022-11-18T05:41:43;5.22;;;3.28;;
18302;SDS011;9277;37.980;23.748;2022-11-18T05:44:27;7.43;;;3.50;;
18302;SDS011;9277;37.980;23.748;2022-11-18T05:46:54;7.97;;;3.08;;
18302;SDS011;9277;37.980;23.748;2022-11-18T05:49:21;6.43;;;3.13;;
18302;SDS011;9277;37.980;23.748;2022-11-18T05:51:48;8.20;;;2.70;;
18302;SDS011;9277;37.980;23.748;2022-11-18T05:54:16;3.72;;;2.60;;
18302;SDS011;9277;37.980;23.748;2022-11-18T05:56:44;3.97;;;2.60;;
18302;SDS011;9277;37.980;23.748;2022-11-18T05:59:11;10.75;;;2.63;;
18302;SDS011;9277;37.980;23.748;2022-11-18T06:01:39;3.33;;;2.28;;
18302;SDS011;9277;37.980;23.748;2022-11-18T06:04:08;9.00;;;2.47;;
18302;SDS011;9277;37.980;23.748;2022-11-18T06:06:36;7.40;;;2.28;;
18302;SDS011;9277;37.980;23.748;2022-11-18T06:09:04;5.18;;;2.15;;
18302;SDS011;9277;37.980;23.748;2022-11-18T06:11:39;6.35;;;2.20;;
18302;SDS011;9277;37.980;23.748;2022-11-18T06:14:08;6.72;;;2.55;;
18302;SDS011;9277;37.980;23.748;2022-11-18T06:16:37;2.95;;;1.85;;
18302;SDS011;9277;37.980;23.748;2022-11-18T06:19:05;3.17;;;2.55;;
18302;SDS011;9277;37.980;23.748;2022-11-18T06:21:32;9.68;;;2.83;;
18302;SDS011;9277;37.980;23.748;2022-11-18T06:23:59;3.83;;;2.85;;
18302;SDS011;9277;37.980;23.748;2022-11-18T06:26:26;11.93;;;3.90;;
18302;SDS011;9277;37.980;23.748;2022-11-18T06:28:55;13.90;;;4.22;;
18302;SDS011;9277;37.980;23.748;2022-11-18T06:31:22;10.38;;;3.97;;
18302;SDS011;9277;37.980;23.748;2022-11-18T06:33:48;6.32;;;3.72;;
18302;SDS011;9277;37.980;23.748;2022-11-18T06:36:15;8.77;;;4.20;;
18302;SDS011;9277;37.980;23.748;2022-11-18T06:38:44;13.48;;;4.80;;
18302;SDS011;9277;37.980;23.748;2022-11-18T06:41:11;7.57;;;4.30;;
18302;SDS011;9277;37.980;23.748;2022-11-18T06:43:38;10.65;;;4.70;;
18302;SDS011;9277;37.980;23.748;2022-11-18T06:46:07;8.52;;;4.30;;
18302;SDS011;9277;37.980;23.748;2022-11-18T06:48:51;14.07;;;4.47;;
18302;SDS011;9277;37.980;23.748;2022-11-18T06:51:18;7.07;;;4.32;;
18302;SDS011;9277;37.980;23.748;2022-11-18T06:53:45;36.70;;;6.78;;
18302;SDS011;9277;37.980;23.748;2022-11-18T06:56:13;23.48;;;5.00;;
18302;SDS011;9277;37.980;23.748;2022-11-18T06:58:40;21.40;;;5.78;;
18302;SDS011;9277;37.980;23.748;2022-11-18T07:01:09;25.42;;;4.70;;
18302;SDS011;9277;37.980;23.748;2022-11-18T07:03:36;41.15;;;6.55;;
18302;SDS011;9277;37.980;23.748;2022-11-18T07:06:04;23.38;;;5.65;;
18302;SDS011;9277;37.980;23.748;2022-11-18T07:08:31;37.85;;;6.50;;
18302;SDS011;9277;37.980;23.748;2022-11-18T07:10:59;35.03;;;5.50;;
18302;SDS011;9277;37.980;23.748;2022-11-18T07:13:26;19.38;;;4.93;;
18302;SDS011;9277;37.980;23.748;2022-11-18T07:15:53;13.27;;;4.45;;
18302;SDS011;9277;37.980;23.748;2022-11-18T07:18:21;21.92;;;5.53;;
18302;SDS011;9277;37.980;23.748;2022-11-18T07:20:48;7.40;;;3.47;;
18302;SDS011;9277;37.980;23.748;2022-11-18T07:23:15;8.82;;;3.40;;
18302;SDS011;9277;37.980;23.748;2022-11-18T07:25:42;14.27;;;3.50;;
18302;SDS011;9277;37.980;23.748;2022-11-18T07:28:08;10.68;;;3.30;;
18302;SDS011;9277;37.980;23.748;2022-11-18T07:30:35;11.55;;;3.10;;
18302;SDS011;9277;37.980;23.748;2022-11-18T07:33:02;6.88;;;2.70;;
18302;SDS011;9277;37.980;23.748;2022-11-18T07:35:31;10.38;;;2.85;;
18302;SDS011;9277;37.980;23.748;2022-11-18T07:37:58;3.10;;;2.28;;
18302;SDS011;9277;37.980;23.748;2022-11-18T07:40:25;5.93;;;2.45;;
18302;SDS011;9277;37.980;23.748;2022-11-18T07:42:52;5.13;;;2.83;;
18302;SDS011;9277;37.980;23.748;2022-11-18T07:45:19;5.15;;;1.92;;
18302;SDS011;9277;37.980;23.748;2022-11-18T07:47:46;4.28;;;2.50;;
18302;SDS011;9277;37.980;23.748;2022-11-18T07:50:13;4.70;;;2.38;;
18302;SDS011;9277;37.980;23.748;2022-11-18T07:52:41;10.43;;;2.40;;
18302;SDS011;9277;37.980;23.748;2022-11-18T07:55:08;6.95;;;2.03;;
18302;SDS011;9277;37.980;23.748;2022-11-18T07:57:35;9.15;;;2.53;;
18302;SDS011;9277;37.980;23.748;2022-11-18T08:00:02;6.43;;;2.10;;
18302;SDS011;9277;37.980;23.748;2022-11-18T08:02:29;8.38;;;2.70;;
18302;SDS011;9277;37.980;23.748;2022-11-18T08:04:57;5.78;;;2.47;;
18302;SDS011;9277;37.980;23.748;2022-11-18T08:07:24;5.70;;;2.03;;
18302;SDS011;9277;37.980;23.748;2022-11-18T08:09:52;4.35;;;2.22;;
18302;SDS011;9277;37.980;23.748;2022-11-18T08:12:19;5.82;;;2.20;;
18302;SDS011;9277;37.980;23.748;2022-11-18T08:14:46;3.05;;;1.85;;
18302;SDS011;9277;37.980;23.748;2022-11-18T08:17:13;5.72;;;2.72;;
18302;SDS011;9277;37.980;23.748;2022-11-18T08:19:39;5.82;;;3.10;;
18302;SDS011;9277;37.980;23.748;2022-11-18T08:22:07;6.80;;;2.58;;
18302;SDS011;9277;37.980;23.748;2022-11-18T08:24:34;4.25;;;2.00;;
18302;SDS011;9277;37.980;23.748;2022-11-18T08:27:02;6.95;;;2.30;;
18302;SDS011;9277;37.980;23.748;2022-11-18T08:29:29;7.88;;;2.22;;
18302;SDS011;9277;37.980;23.748;2022-11-18T08:31:56;7.35;;;2.75;;
18302;SDS011;9277;37.980;23.748;2022-11-18T08:34:23;5.35;;;2.70;;
18302;SDS011;9277;37.980;23.748;2022-11-18T08:36:50;6.35;;;2.25;;
18302;SDS011;9277;37.980;23.748;2022-11-18T08:39:17;5.25;;;2.40;;
18302;SDS011;9277;37.980;23.748;2022-11-18T08:41:44;4.93;;;2.60;;
18302;SDS011;9277;37.980;23.748;2022-11-18T08:44:13;5.22;;;2.25;;
18302;SDS011;9277;37.980;23.748;2022-11-18T08:46:41;4.53;;;2.80;;
18302;SDS011;9277;37.980;23.748;2022-11-18T08:49:09;3.88;;;1.90;;
18302;SDS011;9277;37.980;23.748;2022-11-18T08:51:36;4.15;;;2.78;;
18302;SDS011;9277;37.980;23.748;2022-11-18T08:54:03;8.38;;;2.63;;
18302;SDS011;9277;37.980;23.748;2022-11-18T08:56:30;4.28;;;2.75;;
18302;SDS011;9277;37.980;23.748;2022-11-18T08:58:57;2.70;;;2.40;;
18302;SDS011;9277;37.980;23.748;2022-11-18T09:01:25;2.20;;;2.00;;
18302;SDS011;9277;37.980;23.748;2022-11-18T09:03:52;4.97;;;2.33;;
18302;SDS011;9277;37.980;23.748;2022-11-18T09:06:19;3.05;;;2.45;;
18302;SDS011;9277;37.980;23.748;2022-11-18T09:08:46;2.75;;;2.10;;
18302;SDS011;9277;37.980;23.748;2022-11-18T09:11:14;7.10;;;2.20;;
18302;SDS011;9277;37.980;23.748;2022-11-18T09:13:41;6.22;;;2.08;;
18302;SDS011;9277;37.980;23.748;2022-11-18T09:16:08;2.45;;;1.85;;
18302;SDS011;9277;37.980;23.748;2022-11-18T09:18:37;4.45;;;2.38;;
18302;SDS011;9277;37.980;23.748;2022-11-18T09:21:04;4.45;;;1.98;;
18302;SDS011;9277;37.980;23.748;2022-11-18T09:23:32;5.40;;;1.85;;
18302;SDS011;9277;37.980;23.748;2022-11-18T09:25:59;4.15;;;2.10;;
18302;SDS011;9277;37.980;23.748;2022-11-18T09:28:26;5.93;;;1.90;;
18302;SDS011;9277;37.980;23.748;2022-11-18T09:30:53;4.32;;;1.50;;
18302;SDS011;9277;37.980;23.748;2022-11-18T09:33:21;3.17;;;1.42;;
18302;SDS011;9277;37.980;23.748;2022-11-18T09:35:49;3.35;;;1.65;;
18302;SDS011;9277;37.980;23.748;2022-11-18T09:38:16;2.88;;;1.55;;
18302;SDS011;9277;37.980;23.748;2022-11-18T09:40:44;1.85;;;1.70;;
18302;SDS011;9277;37.980;23.748;2022-11-18T09:43:25;3.42;;;1.60;;
18302;SDS011;9277;37.980;23.748;2022-11-18T09:45:54;1.42;;;1.20;;
18302;SDS011;9277;37.980;23.748;2022-11-18T09:48:22;1.70;;;1.60;;
18302;SDS011;9277;37.980;23.748;2022-11-18T09:51:12;16.65;;;1.70;;
18302;SDS011;9277;37.980;23.748;2022-11-18T09:53:39;1.55;;;1.38;;
18302;SDS011;9277;37.980;23.748;2022-11-18T09:56:09;3.60;;;1.50;;
18302;SDS011;9277;37.980;23.748;2022-11-18T09:58:37;4.90;;;2.00;;
18302;SDS011;9277;37.980;23.748;2022-11-18T10:01:07;2.05;;;1.70;;
18302;SDS011;9277;37.980;23.748;2022-11-18T10:03:36;2.92;;;2.30;;
18302;SDS011;9277;37.980;23.748;2022-11-18T10:06:04;2.72;;;1.77;;
18302;SDS011;9277;37.980;23.748;2022-11-18T10:08:41;3.53;;;1.67;;
18302;SDS011;9277;37.980;23.748;2022-11-18T10:11:12;1.80;;;1.70;;
18302;SDS011;9277;37.980;23.748;2022-11-18T10:13:44;2.70;;;1.98;;
18302;SDS011;9277;37.980;23.748;2022-11-18T10:16:19;1.75;;;1.58;;
18302;SDS011;9277;37.980;23.748;2022-11-18T10:18:50;3.00;;;1.98;;
18302;SDS011;9277;37.980;23.748;2022-11-18T10:21:21;6.00;;;1.77;;
18302;SDS011;9277;37.980;23.748;2022-11-18T10:23:53;4.22;;;2.03;;
18302;SDS011;9277;37.980;23.748;2022-11-18T10:26:32;7.47;;;2.20;;
18302;SDS011;9277;37.980;23.748;2022-11-18T10:28:59;2.33;;;1.60;;
18302;SDS011;9277;37.980;23.748;2022-11-18T10:31:26;2.33;;;1.52;;
18302;SDS011;9277;37.980;23.748;2022-11-18T10:33:57;3.13;;;1.83;;
18302;SDS011;9277;37.980;23.748;2022-11-18T10:36:25;3.60;;;1.70;;
18302;SDS011;9277;37.980;23.748;2022-11-18T10:39:07;4.35;;;1.60;;
18302;SDS011;9277;37.980;23.748;2022-11-18T10:41:40;3.97;;;1.42;;
18302;SDS011;9277;37.980;23.748;2022-11-18T10:44:24;5.82;;;1.92;;
18302;SDS011;9277;37.980;23.748;2022-11-18T10:46:51;4.07;;;2.28;;
18302;SDS011;9277;37.980;23.748;2022-11-18T10:49:18;2.83;;;1.90;;
18302;SDS011;9277;37.980;23.748;2022-11-18T10:51:46;6.03;;;1.92;;
18302;SDS011;9277;37.980;23.748;2022-11-18T10:54:16;2.08;;;1.77;;
18302;SDS011;9277;37.980;23.748;2022-11-18T10:56:43;4.55;;;2.10;;
18302;SDS011;9277;37.980;23.748;2022-11-18T10:59:11;4.45;;;1.90;;
18302;SDS011;9277;37.980;23.748;2022-11-18T11:01:41;3.35;;;1.70;;
18302;SDS011;9277;37.980;23.748;2022-11-18T11:04:11;1.60;;;1.50;;
18302;SDS011;9277;37.980;23.748;2022-11-18T11:06:38;1.83;;;1.50;;
18302;SDS011;9277;37.980;23.748;2022-11-18T11:09:07;2.35;;;1.70;;
18302;SDS011;9277;37.980;23.748;2022-11-18T11:11:36;1.95;;;1.65;;
18302;SDS011;9277;37.980;23.748;2022-11-18T11:14:14;2.92;;;2.25;;
18302;SDS011;9277;37.980;23.748;2022-11-18T11:16:44;2.10;;;1.90;;
18302;SDS011;9277;37.980;23.748;2022-11-18T11:19:12;8.02;;;2.08;;
18302;SDS011;9277;37.980;23.748;2022-11-18T11:21:40;5.32;;;2.03;;
18302;SDS011;9277;37.980;23.748;2022-11-18T11:24:10;2.25;;;2.05;;
18302;SDS011;9277;37.980;23.748;2022-11-18T11:26:40;4.57;;;2.38;;
18302;SDS011;9277;37.980;23.748;2022-11-18T11:29:11;5.10;;;2.20;;
18302;SDS011;9277;37.980;23.748;2022-11-18T11:31:45;5.75;;;2.08;;
18302;SDS011;9277;37.980;23.748;2022-11-18T11:34:17;2.80;;;2.33;;
18302;SDS011;9277;37.980;23.748;2022-11-18T11:36:47;2.60;;;1.90;;
18302;SDS011;9277;37.980;23.748;2022-11-18T11:39:25;8.90;;;2.17;;
18302;SDS011;9277;37.980;23.748;2022-11-18T11:41:59;4.85;;;2.10;;
18302;SDS011;9277;37.980;23.748;2022-11-18T11:44:33;4.57;;;2.47;;
18302;SDS011;9277;37.980;23.748;2022-11-18T11:47:05;4.60;;;2.30;;
18302;SDS011;9277;37.980;23.748;2022-11-18T11:49:51;4.10;;;2.10;;
18302;SDS011;9277;37.980;23.748;2022-11-18T11:52:21;2.83;;;2.00;;
18302;SDS011;9277;37.980;23.748;2022-11-18T11:54:51;4.38;;;2.22;;
18302;SDS011;9277;37.980;23.748;2022-11-18T11:57:28;9.90;;;2.55;;
18302;SDS011;9277;37.980;23.748;2022-11-18T12:00:00;3.35;;;2.25;;
18302;SDS011;9277;37.980;23.748;2022-11-18T12:02:37;4.57;;;2.20;;
18302;SDS011;9277;37.980;23.748;2022-11-18T12:05:10;4.00;;;2.55;;
18302;SDS011;9277;37.980;23.748;2022-11-18T12:07:43;3.40;;;2.00;;
18302;SDS011;9277;37.980;23.748;2022-11-18T12:10:17;2.35;;;1.85;;
18302;SDS011;9277;37.980;23.748;2022-11-18T12:12:49;4.00;;;2.60;;
18302;SDS011;9277;37.980;23.748;2022-11-18T12:15:21;4.45;;;2.63;;
18302;SDS011;9277;37.980;23.748;2022-11-18T12:17:53;4.63;;;2.80;;
18302;SDS011;9277;37.980;23.748;2022-11-18T12:23:11;4.53;;;2.00;;
18302;SDS011;9277;37.980;23.748;2022-11-18T12:25:51;4.35;;;2.50;;
18302;SDS011;9277;37.980;23.748;2022-11-18T12:28:23;4.45;;;2.35;;
18302;SDS011;9277;37.980;23.748;2022-11-18T12:31:02;5.25;;;2.05;;
18302;SDS011;9277;37.980;23.748;2022-11-18T12:33:50;4.47;;;2.55;;
18302;SDS011;9277;37.980;23.748;2022-11-18T12:36:23;4.18;;;1.98;;
18302;SDS011;9277;37.980;23.748;2022-11-18T12:38:51;6.15;;;2.05;;
18302;SDS011;9277;37.980;23.748;2022-11-18T12:44:17;6.00;;;2.17;;
18302;SDS011;9277;37.980;23.748;2022-11-18T12:46:52;3.58;;;1.63;;
18302;SDS011;9277;37.980;23.748;2022-11-18T12:52:04;3.65;;;1.88;;
18302;SDS011;9277;37.980;23.748;2022-11-18T12:54:45;8.93;;;2.55;;
18302;SDS011;9277;37.980;23.748;2022-11-18T12:57:14;5.00;;;1.80;;
18302;SDS011;9277;37.980;23.748;2022-11-18T12:59:45;3.88;;;1.70;;
18302;SDS011;9277;37.980;23.748;2022-11-18T13:02:19;5.00;;;2.80;;
18302;SDS011;9277;37.980;23.748;2022-11-18T13:05:01;2.17;;;1.92;;
18302;SDS011;9277;37.980;23.748;2022-11-18T13:07:28;4.30;;;1.90;;
18302;SDS011;9277;37.980;23.748;2022-11-18T13:10:18;6.18;;;1.70;;
18302;SDS011;9277;37.980;23.748;2022-11-18T13:12:46;4.03;;;2.00;;
18302;SDS011;9277;37.980;23.748;2022-11-18T13:15:16;4.38;;;1.85;;
18302;SDS011;9277;37.980;23.748;2022-11-18T13:18:05;3.55;;;1.52;;
18302;SDS011;9277;37.980;23.748;2022-11-18T13:20:32;1.95;;;1.67;;
18302;SDS011;9277;37.980;23.748;2022-11-18T13:23:00;5.25;;;2.28;;
18302;SDS011;9277;37.980;23.748;2022-11-18T13:25:44;3.33;;;1.48;;
18302;SDS011;9277;37.980;23.748;2022-11-18T13:28:17;2.50;;;1.83;;
18302;SDS011;9277;37.980;23.748;2022-11-18T13:30:49;6.57;;;2.47;;
18302;SDS011;9277;37.980;23.748;2022-11-18T13:33:17;3.97;;;1.75;;
18302;SDS011;9277;37.980;23.748;2022-11-18T13:35:44;3.97;;;1.98;;
18302;SDS011;9277;37.980;23.748;2022-11-18T13:38:17;1.90;;;1.50;;
18302;SDS011;9277;37.980;23.748;2022-11-18T13:40:46;1.65;;;1.55;;
18302;SDS011;9277;37.980;23.748;2022-11-18T13:43:28;3.30;;;2.10;;
18302;SDS011;9277;37.980;23.748;2022-11-18T13:45:57;5.30;;;1.85;;
18302;SDS011;9277;37.980;23.748;2022-11-18T13:48:25;3.60;;;1.70;;
18302;SDS011;9277;37.980;23.748;2022-11-18T13:50:53;11.20;;;2.13;;
18302;SDS011;9277;37.980;23.748;2022-11-18T13:53:25;2.28;;;1.90;;
18302;SDS011;9277;37.980;23.748;2022-11-18T13:55:53;4.93;;;1.85;;
18302;SDS011;9277;37.980;23.748;2022-11-18T13:58:31;2.03;;;1.70;;
18302;SDS011;9277;37.980;23.748;2022-11-18T14:01:02;4.57;;;2.55;;
18302;SDS011;9277;37.980;23.748;2022-11-18T14:03:30;2.38;;;1.85;;
18302;SDS011;9277;37.980;23.748;2022-11-18T14:05:58;1.55;;;1.45;;
18302;SDS011;9277;37.980;23.748;2022-11-18T14:08:27;2.85;;;1.73;;
18302;SDS011;9277;37.980;23.748;2022-11-18T14:10:57;6.03;;;2.28;;
18302;SDS011;9277;37.980;23.748;2022-11-18T14:13:24;3.42;;;1.30;;
18302;SDS011;9277;37.980;23.748;2022-11-18T14:15:52;1.35;;;1.30;;
18302;SDS011;9277;37.980;23.748;2022-11-18T14:18:22;2.50;;;1.73;;
18302;SDS011;9277;37.980;23.748;2022-11-18T14:20:52;3.80;;;1.55;;
18302;SDS011;9277;37.980;23.748;2022-11-18T14:25:46;1.98;;;1.25;;
18302;SDS011;9277;37.980;23.748;2022-11-18T14:28:18;2.63;;;1.27;;
18302;SDS011;9277;37.980;23.748;2022-11-18T14:30:54;1.63;;;1.15;;
18302;SDS011;9277;37.980;23.748;2022-11-18T14:33:23;2.15;;;1.23;;
18302;SDS011;9277;37.980;23.748;2022-11-18T14:35:51;3.80;;;1.88;;
18302;SDS011;9277;37.980;23.748;2022-11-18T14:38:20;1.70;;;1.10;;
18302;SDS011;9277;37.980;23.748;2022-11-18T14:40:52;3.38;;;1.20;;
18302;SDS011;9277;37.980;23.748;2022-11-18T14:43:19;9.45;;;1.73;;
18302;SDS011;9277;37.980;23.748;2022-11-18T14:45:46;3.35;;;1.55;;
18302;SDS011;9277;37.980;23.748;2022-11-18T14:48:13;2.50;;;1.50;;
18302;SDS011;9277;37.980;23.748;2022-11-18T14:50:42;4.78;;;2.42;;
18302;SDS011;9277;37.980;23.748;2022-11-18T14:53:09;4.97;;;2.10;;
18302;SDS011;9277;37.980;23.748;2022-11-18T14:55:37;9.38;;;1.85;;
18302;SDS011;9277;37.980;23.748;2022-11-18T14:58:03;3.42;;;1.70;;
18302;SDS011;9277;37.980;23.748;2022-11-18T15:00:30;4.20;;;2.30;;
18302;SDS011;9277;37.980;23.748;2022-11-18T15:02:57;4.30;;;1.30;;
18302;SDS011;9277;37.980;23.748;2022-11-18T15:05:24;2.92;;;2.22;;
18302;SDS011;9277;37.980;23.748;2022-11-18T15:07:52;5.53;;;2.00;;
18302;SDS011;9277;37.980;23.748;2022-11-18T15:10:20;3.03;;;1.77;;
18302;SDS011;9277;37.980;23.748;2022-11-18T15:12:47;3.33;;;1.95;;
18302;SDS011;9277;37.980;23.748;2022-11-18T15:15:13;5.63;;;1.92;;